Time;durP1;ratioP1;P1;durP2;ratioP2;P2;SDS_P1;SDS_P2;PMS_P1;PMS_P2;Temp;Humidity;BMP_temperature;BMP_pressure;BME280_temperature;BME280_humidity;BME280_pressure;Samples;Min_cycle;Max_cycle;Signal;HPM_P1;HPM_P2
2021/09/26 00:01:03;;;;;;;;;;;16.70;99.90;;;;;;8389755;28;19928;-74
2021/09/26 00:05:05;;;;;;;;;;;16.70;99.90;;;;;;8395895;28;19921;-73
2021/09/26 00:09:06;;;;;;;;;;;16.70;99.90;;;;;;8397064;28;19920;-73
2021/09/26 00:13:08;;;;;;;;;;;16.70;99.90;;;;;;8410356;28;19920;-73
2021/09/26 00:17:09;;;;;;;;;;;16.60;99.90;;;;;;8403502;28;19927;-73
2021/09/26 00:21:11;;;;;;;;;;;16.60;99.90;;;;;;8386854;28;19943;-74
2021/09/26 00:25:16;;;;;;;;;;;16.60;99.90;;;;;;8373949;28;19924;-74
2021/09/26 00:29:17;;;;;;;;;;;16.60;99.90;;;;;;8388719;28;19927;-73
2021/09/26 00:33:19;;;;;;;;;;;16.60;99.90;;;;;;8395532;28;19924;-74
2021/09/26 00:37:21;;;;;;;;;;;16.60;99.90;;;;;;8393368;28;19920;-74
2021/09/26 00:41:22;;;;;;;;;;;16.60;99.90;;;;;;8387602;28;19931;-73
2021/09/26 00:45:24;;;;;;;;;;;16.60;99.90;;;;;;8385804;28;19921;-73
2021/09/26 00:49:26;;;;;;;;;;;16.60;99.90;;;;;;8405381;28;19977;-73
2021/09/26 00:53:28;;;;;;;;;;;16.60;99.90;;;;;;8406775;28;20359;-73
2021/09/26 00:57:29;;;;;;;;;;;16.60;99.90;;;;;;8393712;28;19925;-73
2021/09/26 01:01:31;;;;;;;;;;;16.60;99.90;;;;;;8392023;28;19921;-74
2021/09/26 01:05:33;;;;;;;;;;;16.60;99.90;;;;;;8385054;28;19925;-73
2021/09/26 01:09:56;;;;;;;;;;;16.60;99.90;;;;;;8386323;28;19921;-74
2021/09/26 01:14:03;;;;;;;;;;;16.60;99.90;;;;;;8399634;28;19925;-73
2021/09/26 01:18:08;;;;;;;;;;;16.60;99.90;;;;;;8389700;28;19920;-73
2021/09/26 01:22:12;;;;;;;;;;;16.60;99.90;;;;;;8381566;28;20480;-73
2021/09/26 01:26:30;;;;;;;;;;;16.60;99.90;;;;;;8391057;28;19920;-73
2021/09/26 01:30:36;;;;;;;;;;;16.50;99.90;;;;;;8387740;28;20378;-73
2021/09/26 01:34:40;;;;;;;;;;;16.50;99.90;;;;;;8389491;28;20371;-73
2021/09/26 01:39:17;;;;;;;;;;;16.50;99.90;;;;;;8392586;28;20418;-73
2021/09/26 01:43:21;;;;;;;;;;;16.50;99.90;;;;;;8252306;28;19924;-73
2021/09/26 01:47:27;;;;;;;;;;;16.50;99.90;;;;;;8384833;28;19974;-73
2021/09/26 01:51:33;;;;;;;;;;;16.50;99.90;;;;;;8381940;28;20283;-73
2021/09/26 01:55:36;;;;;;;;;;;16.50;99.90;;;;;;8389988;28;19948;-73
2021/09/26 01:59:38;;;;;;;;;;;16.50;99.90;;;;;;8372650;28;20038;-73
2021/09/26 02:03:40;;;;;;;;;;;16.40;99.90;;;;;;8388752;28;19935;-73
2021/09/26 02:07:43;;;;;;;;;;;16.40;99.90;;;;;;8389006;28;19921;-73
2021/09/26 02:11:45;;;;;;;;;;;16.40;99.90;;;;;;8386774;28;19927;-73
2021/09/26 02:15:47;;;;;;;;;;;16.40;99.90;;;;;;8386648;28;19936;-73
2021/09/26 02:19:50;;;;;;;;;;;16.40;99.90;;;;;;8363614;28;19970;-73
2021/09/26 02:23:51;;;;;;;;;;;16.40;99.90;;;;;;8368072;28;19931;-73
2021/09/26 02:27:54;;;;;;;;;;;16.30;99.90;;;;;;8386326;28;20299;-73
2021/09/26 02:31:56;;;;;;;;;;;16.30;99.90;;;;;;8390730;28;19928;-74
2021/09/26 02:35:58;;;;;;;;;;;16.30;99.90;;;;;;8384295;28;20364;-73
2021/09/26 02:40:00;;;;;;;;;;;16.30;99.90;;;;;;8387038;28;19936;-73
2021/09/26 02:44:02;;;;;;;;;;;16.30;99.90;;;;;;8382896;28;19921;-74
2021/09/26 02:48:14;;;;;;;;;;;16.30;99.90;;;;;;8390392;28;19921;-74
2021/09/26 02:52:16;;;;;;;;;;;16.20;99.90;;;;;;8378994;28;19928;-74
2021/09/26 02:56:18;;;;;;;;;;;16.20;99.90;;;;;;8379522;28;19935;-73
2021/09/26 03:00:20;;;;;;;;;;;16.20;99.90;;;;;;8385540;28;19931;-73
2021/09/26 03:04:22;;;;;;;;;;;16.20;99.90;;;;;;8385785;28;19943;-74
2021/09/26 03:08:24;;;;;;;;;;;16.20;99.90;;;;;;8364333;28;19950;-73
2021/09/26 03:12:26;;;;;;;;;;;16.10;99.90;;;;;;8386535;28;19920;-74
2021/09/26 03:16:27;;;;;;;;;;;16.20;99.90;;;;;;8380528;28;19931;-73
2021/09/26 03:20:29;;;;;;;;;;;16.20;99.90;;;;;;8385962;28;20267;-73
2021/09/26 03:24:31;;;;;;;;;;;16.20;99.90;;;;;;8391909;28;20356;-73
2021/09/26 03:28:33;;;;;;;;;;;16.20;99.90;;;;;;8389860;28;19920;-73
2021/09/26 03:32:35;;;;;;;19.77;10.90;;;16.20;99.90;;;;;;8393095;28;20072;-73
2021/09/26 03:36:37;;;;;;;19.02;11.00;;;16.10;99.90;;;;;;8394524;28;20477;-73
2021/09/26 03:40:39;;;;;;;17.45;11.85;;;16.10;99.90;;;;;;8391637;28;20059;-73
2021/09/26 03:44:40;;;;;;;19.58;11.57;;;16.10;99.90;;;;;;8390244;28;20056;-73
2021/09/26 03:48:42;;;;;;;;;;;16.10;99.90;;;;;;8390774;28;20502;-73
2021/09/26 03:52:44;;;;;;;;;;;16.10;99.90;;;;;;8393139;28;19927;-73
2021/09/26 03:56:48;;;;;;;;;;;16.00;99.90;;;;;;8392231;28;21124;-73
2021/09/26 04:00:50;;;;;;;;;;;16.00;99.90;;;;;;8396285;28;19920;-73
2021/09/26 04:04:52;;;;;;;;;;;16.00;99.90;;;;;;8394278;28;19920;-73
2021/09/26 04:08:53;;;;;;;;;;;16.00;99.90;;;;;;8388912;28;19964;-73
2021/09/26 04:12:55;;;;;;;;;;;16.00;99.90;;;;;;8388931;28;19978;-73
2021/09/26 04:16:57;;;;;;;;;;;16.00;99.90;;;;;;8393505;28;19924;-73
2021/09/26 04:20:58;;;;;;;;;;;15.90;99.90;;;;;;8384605;28;19924;-73
2021/09/26 04:25:00;;;;;;;;;;;16.00;99.90;;;;;;8392764;28;19935;-73
2021/09/26 04:29:02;;;;;;;;;;;15.90;99.90;;;;;;8394321;28;19921;-73
2021/09/26 04:33:05;;;;;;;;;;;15.90;99.90;;;;;;8391431;28;20469;-73
2021/09/26 04:37:07;;;;;;;;;;;15.90;99.90;;;;;;8392629;28;19977;-73
2021/09/26 04:41:08;;;;;;;;;;;16.00;99.90;;;;;;8389369;28;19936;-73
2021/09/26 04:45:11;;;;;;;;;;;15.90;99.90;;;;;;8387772;28;19932;-73
2021/09/26 04:49:13;;;;;;;;;;;15.90;99.90;;;;;;8386958;28;20401;-73
2021/09/26 04:53:15;;;;;;;;;;;15.90;99.90;;;;;;8385667;28;19927;-73
2021/09/26 04:57:16;;;;;;;;;;;15.90;99.90;;;;;;8386578;28;19954;-73
2021/09/26 05:01:18;;;;;;;;;;;15.90;99.90;;;;;;8384772;28;20292;-73
2021/09/26 05:05:20;;;;;;;;;;;15.90;99.90;;;;;;8388734;28;19920;-73
2021/09/26 05:09:21;;;;;;;;;;;15.90;99.90;;;;;;8383123;28;20236;-73
2021/09/26 05:13:23;;;;;;;;;;;15.90;99.90;;;;;;8388501;28;19929;-73
2021/09/26 05:17:25;;;;;;;;;;;16.00;99.90;;;;;;8367295;28;19920;-73
2021/09/26 05:21:26;;;;;;;;;;;16.00;99.90;;;;;;8381935;28;19928;-73
2021/09/26 05:25:28;;;;;;;;;;;16.00;99.90;;;;;;8387568;28;20401;-73
2021/09/26 05:29:30;;;;;;;;;;;16.00;99.90;;;;;;8384621;28;20398;-73
2021/09/26 05:33:33;;;;;;;;;;;16.00;99.90;;;;;;8383537;28;20398;-74
2021/09/26 05:37:34;;;;;;;;;;;15.90;99.90;;;;;;8385449;28;19928;-73
2021/09/26 05:41:36;;;;;;;;;;;16.00;99.90;;;;;;8386150;28;19924;-73
2021/09/26 05:45:38;;;;;;;;;;;15.90;99.90;;;;;;8385695;28;19920;-73
2021/09/26 05:49:40;;;;;;;;;;;16.00;99.90;;;;;;8390470;28;19920;-73
2021/09/26 05:53:42;;;;;;;;;;;16.00;99.90;;;;;;8395728;28;19920;-73
2021/09/26 05:57:43;;;;;;;;;;;16.00;99.90;;;;;;8392934;28;19950;-73
2021/09/26 06:01:48;;;;;;;;;;;16.00;99.90;;;;;;8390086;28;19928;-73
2021/09/26 06:05:49;;;;;;;18.80;10.90;;;16.00;99.90;;;;;;8384688;28;20081;-73
2021/09/26 06:09:51;;;;;;;16.38;10.13;;;16.00;99.90;;;;;;8367205;28;20048;-73
2021/09/26 06:13:53;;;;;;;15.65;9.25;;;16.00;99.90;;;;;;8384656;28;20070;-73
2021/09/26 06:17:55;;;;;;;16.95;10.57;;;16.00;99.90;;;;;;8387922;28;20064;-73
2021/09/26 06:21:56;;;;;;;;;;;16.00;99.90;;;;;;8365804;28;20116;-73
2021/09/26 06:26:00;;;;;;;;;;;16.00;99.90;;;;;;8381718;28;19973;-74
2021/09/26 06:30:03;;;;;;;;;;;16.00;99.90;;;;;;8386735;28;19928;-73
2021/09/26 06:34:05;;;;;;;15.90;10.40;;;16.00;99.90;;;;;;8406170;28;19935;-74
2021/09/26 06:38:07;;;;;;;;;;;16.10;99.90;;;;;;8386166;28;19920;-74
2021/09/26 06:42:08;;;;;;;;;;;16.10;99.90;;;;;;8370306;28;19924;-73
2021/09/26 06:46:10;;;;;;;;;;;16.20;99.90;;;;;;8388965;28;19986;-74
2021/09/26 06:50:12;;;;;;;;;;;16.20;99.90;;;;;;8389075;28;19924;-73
2021/09/26 06:54:14;;;;;;;;;;;16.20;99.90;;;;;;8368492;28;19920;-74
2021/09/26 06:58:15;;;;;;;;;;;16.20;99.90;;;;;;8397373;28;19982;-73
2021/09/26 07:02:21;;;;;;;;;;;16.20;99.90;;;;;;8407211;28;19924;-73
2021/09/26 07:06:23;;;;;;;;;;;16.30;99.90;;;;;;8391831;28;19920;-73
2021/09/26 07:10:25;;;;;;;;;;;16.30;99.90;;;;;;8395136;28;20391;-73
2021/09/26 07:14:27;;;;;;;;;;;16.30;99.90;;;;;;8387816;28;20011;-73
2021/09/26 07:18:28;;;;;;;;;;;16.30;99.90;;;;;;8390422;28;20000;-73
2021/09/26 07:22:30;;;;;;;;;;;16.40;99.90;;;;;;8375573;28;19927;-71
2021/09/26 07:26:32;;;;;;;18.33;10.40;;;16.40;99.90;;;;;;8359233;28;19978;-71
2021/09/26 07:30:34;;;;;;;14.85;10.07;;;16.50;99.90;;;;;;8366736;28;20090;-71
2021/09/26 07:34:35;;;;;;;14.25;9.75;;;16.60;99.90;;;;;;8356785;28;20084;-71
2021/09/26 07:38:37;;;;;;;;;;;16.70;99.90;;;;;;8372882;28;20048;-71
2021/09/26 07:42:38;;;;;;;;;;;16.90;99.90;;;;;;8389520;28;19920;-71
2021/09/26 07:46:43;;;;;;;;;;;17.00;99.90;;;;;;8372968;28;21081;-70
2021/09/26 07:50:45;;;;;;;;;;;17.20;99.90;;;;;;8372170;28;20014;-71
2021/09/26 07:54:47;;;;;;;;;;;17.30;99.90;;;;;;8375541;28;19924;-71
2021/09/26 07:58:48;;;;;;;19.27;11.65;;;17.40;99.90;;;;;;8371826;28;19971;-71
2021/09/26 08:02:50;;;;;;;13.95;9.23;;;17.50;99.90;;;;;;8374066;28;20101;-71
2021/09/26 08:06:52;;;;;;;19.42;12.10;;;17.60;99.90;;;;;;8360887;28;20118;-71
2021/09/26 08:10:54;;;;;;;18.92;12.85;;;17.70;99.90;;;;;;8374940;28;20399;-71
2021/09/26 08:14:56;;;;;;;20.88;13.73;;;17.70;99.90;;;;;;8372567;28;20056;-71
2021/09/26 08:18:58;;;;;;;16.85;11.93;;;17.60;99.90;;;;;;8373858;28;20055;-71
2021/09/26 08:22:59;;;;;;;18.63;11.68;;;17.60;99.90;;;;;;8375523;28;20072;-71
2021/09/26 08:27:03;;;;;;;16.25;10.23;;;17.60;99.90;;;;;;8374677;28;20049;-71
2021/09/26 08:31:06;;;;;;;18.90;13.70;;;17.70;99.90;;;;;;8374145;28;20044;-71
2021/09/26 08:35:08;;;;;;;17.27;12.45;;;17.80;99.90;;;;;;8373863;28;20519;-72
2021/09/26 08:39:10;;;;;;;19.02;12.38;;;18.00;99.90;;;;;;8355764;28;20343;-71
2021/09/26 08:43:16;;;;;;;19.48;13.48;;;18.20;99.90;;;;;;8373430;28;20411;-71
2021/09/26 08:47:18;;;;;;;;;;;18.30;99.90;;;;;;8366459;28;20044;-71
2021/09/26 08:51:19;;;;;;;;;;;18.50;99.90;;;;;;8379211;28;20643;-73
2021/09/26 08:55:21;;;;;;;;;;;18.60;99.90;;;;;;8365607;28;19929;-73
2021/09/26 08:59:23;;;;;;;;;;;18.70;99.90;;;;;;8356427;28;20376;-73
2021/09/26 09:03:24;;;;;;;;;;;18.80;99.90;;;;;;8361405;28;19931;-73
2021/09/26 09:07:26;;;;;;;;;;;18.90;99.90;;;;;;8360364;28;20265;-73
2021/09/26 09:11:28;;;;;;;;;;;19.10;99.90;;;;;;8359007;28;19920;-73
2021/09/26 09:15:30;;;;;;;;;;;19.20;99.90;;;;;;8358110;28;19920;-74
2021/09/26 09:19:33;;;;;;;;;;;19.30;99.90;;;;;;8358303;28;19921;-73
2021/09/26 09:23:34;;;;;;;21.55;14.15;;;19.30;99.90;;;;;;8357928;28;19944;-73
2021/09/26 09:27:36;;;;;;;;;;;19.40;99.90;;;;;;8351416;28;20486;-74
2021/09/26 09:31:49;;;;;;;;;;;19.50;99.90;;;;;;8353541;28;19974;-73
2021/09/26 09:35:52;;;;;;;;;;;19.80;99.90;;;;;;8356740;28;19928;-73
2021/09/26 09:40:05;;;;;;;;;;;20.00;99.90;;;;;;8358144;28;20329;-74
2021/09/26 09:44:08;;;;;;;;;;;20.20;99.90;;;;;;8363054;28;19921;-73
2021/09/26 09:48:18;;;;;;;;;;;20.30;99.90;;;;;;8357207;28;20410;-73
2021/09/26 09:52:39;;;;;;;;;;;20.40;99.90;;;;;;8359491;28;19942;-73
2021/09/26 09:56:44;;;;;;;;;;;20.50;99.90;;;;;;8357140;28;19921;-73
2021/09/26 10:00:48;;;;;;;;;;;20.50;99.90;;;;;;8380794;28;20031;-73
2021/09/26 10:04:49;;;;;;;;;;;20.60;99.90;;;;;;8364471;28;19970;-73
2021/09/26 10:08:52;;;;;;;;;;;20.70;99.90;;;;;;8366927;28;20383;-74
2021/09/26 10:13:11;;;;;;;;;;;20.80;99.90;;;;;;8372203;28;20052;-73
2021/09/26 10:17:13;;;;;;;;;;;20.80;99.90;;;;;;8361958;28;19924;-73
2021/09/26 10:21:14;;;;;;;;;;;20.90;99.90;;;;;;8354478;28;19920;-73
2021/09/26 10:25:16;;;;;;;;;;;21.00;99.90;;;;;;8356562;28;19939;-73
2021/09/26 10:29:19;;;;;;;;;;;21.10;99.90;;;;;;8357842;28;19920;-73
2021/09/26 10:33:22;;;;;;;;;;;21.20;99.90;;;;;;8356641;28;19927;-73
2021/09/26 10:37:24;;;;;;;;;;;21.30;99.90;;;;;;8358169;28;21462;-73
2021/09/26 10:41:26;;;;;;;;;;;21.40;99.90;;;;;;8357912;28;20335;-73
2021/09/26 10:45:27;;;;;;;;;;;21.50;99.90;;;;;;8354534;28;19928;-74
2021/09/26 10:49:39;;;;;;;;;;;21.50;99.90;;;;;;8361431;28;19936;-73
2021/09/26 10:54:01;;;;;;;;;;;21.60;99.90;;;;;;8355974;28;19948;-73
2021/09/26 10:58:05;;;;;;;;;;;21.70;99.90;;;;;;8354991;28;20001;-73
2021/09/26 11:02:22;;;;;;;;;;;21.70;99.90;;;;;;8364948;28;19933;-73
2021/09/26 11:06:26;;;;;;;;;;;21.70;99.90;;;;;;8360585;28;20352;-73
2021/09/26 11:10:44;;;;;;;;;;;21.70;99.90;;;;;;8361067;28;19935;-73
2021/09/26 11:15:06;;;;;;;;;;;21.70;99.90;;;;;;8360630;28;20434;-73
2021/09/26 11:19:13;;;;;;;;;;;21.80;99.90;;;;;;8363502;28;19928;-73
2021/09/26 11:23:18;;;;;;;;;;;21.80;99.90;;;;;;8357226;28;19921;-73
2021/09/26 11:27:21;;;;;;;;;;;21.80;99.90;;;;;;8365348;28;19921;-73
2021/09/26 11:31:39;;;;;;;;;;;21.80;99.90;;;;;;8359306;28;19928;-73
2021/09/26 11:35:41;;;;;;;;;;;21.80;99.90;;;;;;8361918;28;19940;-74
2021/09/26 11:39:50;;;;;;;;;;;22.00;99.90;;;;;;8346295;28;19975;-73
2021/09/26 11:44:03;;;;;;;;;;;22.20;99.90;;;;;;8348385;28;19924;-73
2021/09/26 11:48:06;;;;;;;;;;;22.20;99.90;;;;;;8371641;28;19928;-73
2021/09/26 11:52:08;;;;;;;;;;;22.30;99.90;;;;;;8363763;28;20365;-73
2021/09/26 11:56:13;;;;;;;;;;;22.30;99.90;;;;;;8371477;28;19967;-73
2021/09/26 12:00:22;;;;;;;;;;;22.40;99.90;;;;;;8372261;28;20310;-73
2021/09/26 12:04:24;;;;;;;;;;;22.50;99.90;;;;;;8368929;28;19924;-73
2021/09/26 12:08:37;;;;;;;;;;;22.60;99.90;;;;;;8366151;28;19925;-73
2021/09/26 12:12:39;;;;;;;;;;;22.70;99.90;;;;;;8363286;28;20387;-73
2021/09/26 12:16:42;;;;;;;;;;;22.70;99.90;;;;;;8361440;28;20335;-74
2021/09/26 12:20:44;;;;;;;;;;;22.60;99.90;;;;;;8361403;28;19929;-74
2021/09/26 12:24:53;;;;;;;;;;;22.50;99.90;;;;;;8359006;28;19999;-74
2021/09/26 12:29:06;;;;;;;;;;;22.50;99.90;;;;;;8363139;28;19997;-74
2021/09/26 12:33:18;;;;;;;;;;;22.60;99.90;;;;;;8358777;28;19944;-74
2021/09/26 12:37:22;;;;;;;;;;;22.70;99.90;;;;;;8375623;28;19928;-74
2021/09/26 12:41:29;;;;;;;;;;;22.80;99.90;;;;;;8360140;28;20332;-74
2021/09/26 12:45:43;;;;;;;;;;;22.90;99.90;;;;;;8358582;28;19920;-74
2021/09/26 12:49:46;;;;;;;;;;;23.00;99.90;;;;;;8353474;28;20431;-74
2021/09/26 12:53:48;;;;;;;;;;;22.90;99.90;;;;;;8363376;28;19928;-74
2021/09/26 12:57:51;;;;;;;;;;;22.80;99.90;;;;;;8370920;28;19939;-74
2021/09/26 13:02:06;;;;;;;;;;;22.70;99.90;;;;;;8355758;28;19940;-74
2021/09/26 13:06:08;;;;;;;;;;;22.60;99.90;;;;;;8367438;28;19955;-74
2021/09/26 13:10:12;;;;;;;;;;;22.50;99.90;;;;;;8370054;28;20000;-75
2021/09/26 13:14:16;;;;;;;;;;;22.50;99.90;;;;;;8368877;28;19929;-74
2021/09/26 13:18:33;;;;;;;;;;;22.40;99.90;;;;;;8353343;28;19963;-74
2021/09/26 13:22:35;;;;;;;;;;;22.40;99.90;;;;;;8357725;28;20183;-74
2021/09/26 13:26:39;;;;;;;;;;;22.50;99.90;;;;;;8357303;28;19928;-74
2021/09/26 13:30:43;;;;;;;18.45;14.00;;;22.40;99.90;;;;;;8355898;28;19932;-74
2021/09/26 13:34:44;;;;;;;;;;;22.30;99.90;;;;;;8357620;28;19928;-73
2021/09/26 13:38:47;;;;;;;;;;;22.30;99.90;;;;;;8357645;28;19928;-74
2021/09/26 13:42:54;;;;;;;;;;;22.30;99.90;;;;;;8352360;28;20305;-74
2021/09/26 13:46:57;;;;;;;;;;;22.30;99.90;;;;;;8356324;28;19920;-74
2021/09/26 13:50:58;;;;;;;;;;;22.20;99.90;;;;;;8354035;28;19925;-74
2021/09/26 13:55:02;;;;;;;;;;;22.20;99.90;;;;;;8355283;28;19920;-74
2021/09/26 13:59:04;;;;;;;;;;;22.30;99.90;;;;;;8365985;28;19924;-74
2021/09/26 14:03:06;;;;;;;;;;;22.30;99.90;;;;;;8368058;28;19928;-74
2021/09/26 14:07:08;;;;;;;;;;;22.30;99.90;;;;;;8363616;28;19924;-74
2021/09/26 14:11:11;;;;;;;;;;;22.30;99.90;;;;;;8362341;28;19921;-74
2021/09/26 14:15:13;;;;;;;;;;;22.30;99.90;;;;;;8351893;28;20291;-74
2021/09/26 14:19:15;;;;;;;;;;;22.30;99.90;;;;;;8352444;28;19928;-74
2021/09/26 14:23:16;;;;;;;;;;;22.20;99.90;;;;;;8351677;28;19928;-74
2021/09/26 14:27:18;;;;;;;15.90;12.10;;;22.20;99.90;;;;;;8354470;28;19965;-74
2021/09/26 14:31:20;;;;;;;;;;;22.20;99.90;;;;;;8355091;28;19927;-73
2021/09/26 14:35:22;;;;;;;;;;;22.10;99.90;;;;;;8355397;28;19927;-74
2021/09/26 14:39:23;;;;;;;;;;;22.10;99.90;;;;;;8353403;28;19924;-74
2021/09/26 14:43:25;;;;;;;;;;;22.20;99.90;;;;;;8355290;28;19921;-73
2021/09/26 14:47:27;;;;;;;;;;;22.20;99.90;;;;;;8355100;28;19955;-74
2021/09/26 14:51:28;;;;;;;;;;;22.20;99.90;;;;;;8353679;28;19925;-74
2021/09/26 14:55:30;;;;;;;;;;;22.30;99.90;;;;;;8352400;28;19936;-74
2021/09/26 14:59:33;;;;;;;;;;;22.40;99.90;;;;;;8356292;28;20381;-74
2021/09/26 15:03:35;;;;;;;;;;;22.40;99.90;;;;;;8353942;28;19932;-73
2021/09/26 15:07:45;;;;;;;;;;;22.40;99.90;;;;;;8355621;28;20241;-74
2021/09/26 15:11:47;;;;;;;;;;;22.40;99.90;;;;;;8353731;28;20294;-74
2021/09/26 15:15:50;;;;;;;;;;;22.30;99.90;;;;;;8352089;28;19955;-74
2021/09/26 15:19:52;;;;;;;;;;;22.30;99.90;;;;;;8356757;28;19967;-74
2021/09/26 15:23:54;;;;;;;;;;;22.20;99.90;;;;;;8358585;28;20008;-74
2021/09/26 15:27:56;;;;;;;;;;;22.20;99.90;;;;;;8357891;28;19935;-74
2021/09/26 15:31:58;;;;;;;;;;;22.10;99.90;;;;;;8358809;28;19931;-74
2021/09/26 15:36:00;;;;;;;;;;;22.10;99.90;;;;;;8357855;28;19920;-74
2021/09/26 15:40:19;;;;;;;;;;;22.10;99.90;;;;;;8357583;28;20828;-74
2021/09/26 15:44:20;;;;;;;;;;;22.10;99.90;;;;;;8359491;28;19920;-74
2021/09/26 15:48:22;;;;;;;;;;;22.10;99.90;;;;;;8374556;28;20337;-74
2021/09/26 15:52:24;;;;;;;;;;;22.10;99.90;;;;;;8362170;28;19936;-74
2021/09/26 15:56:26;;;;;;;;;;;22.10;99.90;;;;;;8363981;28;19960;-74
2021/09/26 16:00:28;;;;;;;;;;;22.10;99.90;;;;;;8351069;28;19979;-74
2021/09/26 16:04:30;;;;;;;;;;;22.10;99.90;;;;;;8364557;28;20444;-74
2021/09/26 16:08:32;;;;;;;;;;;22.10;99.90;;;;;;8357423;28;19931;-74
2021/09/26 16:12:34;;;;;;;;;;;22.10;99.90;;;;;;8354912;28;19978;-74
2021/09/26 16:16:36;;;;;;;;;;;22.10;99.90;;;;;;8354969;28;19971;-74
2021/09/26 16:20:39;;;;;;;15.10;11.80;;;22.00;99.90;;;;;;8362553;28;19989;-74
2021/09/26 16:24:40;;;;;;;14.30;11.18;;;22.10;99.90;;;;;;8361130;28;20053;-74
2021/09/26 16:28:48;;;;;;;14.15;10.65;;;22.10;99.90;;;;;;8359499;28;20037;-74
2021/09/26 16:32:51;;;;;;;13.55;10.88;;;22.00;99.90;;;;;;8353415;28;20106;-74
2021/09/26 16:36:53;;;;;;;13.50;10.73;;;22.10;99.90;;;;;;8369347;28;20094;-74
2021/09/26 16:40:55;;;;;;;13.75;10.20;;;22.10;99.90;;;;;;8345834;28;20041;-74
2021/09/26 16:44:57;;;;;;;15.13;9.98;;;22.10;99.90;;;;;;8358433;28;20047;-74
2021/09/26 16:48:59;;;;;;;15.23;10.98;;;22.00;99.90;;;;;;8358786;28;20110;-74
2021/09/26 16:53:01;;;;;;;15.93;12.07;;;22.00;99.90;;;;;;8355974;28;20052;-74
2021/09/26 16:57:03;;;;;;;15.88;12.13;;;21.90;99.90;;;;;;8359888;28;20045;-74
2021/09/26 17:01:05;;;;;;;14.40;10.90;;;21.90;99.90;;;;;;8357415;28;20549;-74
2021/09/26 17:05:10;;;;;;;15.65;11.55;;;21.80;99.90;;;;;;8341099;28;20041;-74
2021/09/26 17:09:12;;;;;;;11.63;7.82;;;21.80;99.90;;;;;;8349319;28;20106;-74
2021/09/26 17:13:14;;;;;;;12.07;8.68;;;21.80;99.90;;;;;;8356668;28;20044;-74
2021/09/26 17:17:17;;;;;;;12.93;8.65;;;21.70;99.90;;;;;;8356045;28;20510;-74
2021/09/26 17:21:20;;;;;;;11.98;8.52;;;21.70;99.90;;;;;;8358389;28;20048;-74
2021/09/26 17:25:25;;;;;;;15.30;10.50;;;21.60;99.90;;;;;;8354914;28;20079;-74
2021/09/26 17:29:27;;;;;;;14.85;10.60;;;21.50;99.90;;;;;;8341793;28;20080;-74
2021/09/26 17:33:33;;;;;;;14.50;10.20;;;21.50;99.90;;;;;;8339765;28;20045;-74
2021/09/26 17:37:35;;;;;;;13.55;9.55;;;21.40;99.90;;;;;;8354584;28;20050;-74
2021/09/26 17:41:37;;;;;;;12.18;8.85;;;21.40;99.90;;;;;;8352358;28;20041;-74
2021/09/26 17:45:38;;;;;;;11.18;7.47;;;21.40;99.90;;;;;;8356232;28;20037;-74
2021/09/26 17:49:40;;;;;;;9.90;7.07;;;21.30;99.90;;;;;;8359079;28;20059;-74
2021/09/26 17:53:43;;;;;;;11.55;7.90;;;21.30;99.90;;;;;;8360328;28;20048;-74
2021/09/26 17:57:45;;;;;;;;;;;21.20;99.90;;;;;;8358808;28;20045;-74
2021/09/26 18:01:47;;;;;;;;;;;21.20;99.90;;;;;;8353506;28;19921;-74
2021/09/26 18:05:49;;;;;;;;;;;21.20;99.90;;;;;;8354781;28;20001;-73
2021/09/26 18:09:52;;;;;;;;;;;21.10;99.90;;;;;;8356804;28;19975;-74
2021/09/26 18:13:54;;;;;;;;;;;21.10;99.90;;;;;;8351504;28;20343;-74
2021/09/26 18:17:56;;;;;;;;;;;21.00;99.90;;;;;;8346517;28;19932;-74
2021/09/26 18:21:58;;;;;;;;;;;21.00;99.90;;;;;;8369509;28;20004;-74
2021/09/26 18:26:00;;;;;;;;;;;20.90;99.90;;;;;;8357481;28;19924;-74
2021/09/26 18:30:03;;;;;;;;;;;20.90;99.90;;;;;;8352875;28;20355;-74
2021/09/26 18:34:05;;;;;;;;;;;20.90;99.90;;;;;;8353764;28;20427;-74
2021/09/26 18:38:07;;;;;;;;;;;20.90;99.90;;;;;;8356191;28;19932;-74
2021/09/26 18:42:09;;;;;;;;;;;20.80;99.90;;;;;;8353730;28;19928;-74
2021/09/26 18:46:11;;;;;;;;;;;20.80;99.90;;;;;;8355209;28;20323;-74
2021/09/26 18:50:14;;;;;;;;;;;20.80;99.90;;;;;;8349761;28;19932;-74
2021/09/26 18:54:16;;;;;;;;;;;20.80;99.90;;;;;;8366232;28;19974;-74
2021/09/26 18:58:17;;;;;;;;;;;20.80;99.90;;;;;;8361719;28;19947;-73
2021/09/26 19:02:19;;;;;;;;;;;20.70;99.90;;;;;;8364814;28;20363;-74
2021/09/26 19:06:21;;;;;;;;;;;20.70;99.90;;;;;;8356975;28;20402;-73
2021/09/26 19:10:23;;;;;;;;;;;20.70;99.90;;;;;;8378815;28;19920;-73
2021/09/26 19:14:25;;;;;;;;;;;20.60;99.90;;;;;;8351131;28;19920;-74
2021/09/26 19:18:30;;;;;;;;;;;20.60;99.90;;;;;;8364159;28;19936;-74
2021/09/26 19:22:32;;;;;;;;;;;20.50;99.90;;;;;;8369603;28;19925;-73
2021/09/26 19:26:33;;;;;;;;;;;20.40;99.90;;;;;;8356776;28;19925;-74
2021/09/26 19:30:35;;;;;;;;;;;20.40;99.90;;;;;;8362155;28;19920;-74
2021/09/26 19:34:37;;;;;;;;;;;20.30;99.90;;;;;;8363716;28;19928;-73
2021/09/26 19:38:39;;;;;;;;;;;20.20;99.90;;;;;;8366158;28;20360;-74
2021/09/26 19:42:41;;;;;;;;;;;20.10;99.90;;;;;;8367245;28;19939;-73
2021/09/26 19:46:43;;;;;;;;;;;20.10;99.90;;;;;;8366051;28;20445;-73
2021/09/26 19:50:45;;;;;;;;;;;20.00;99.90;;;;;;8360100;28;19924;-74
2021/09/26 19:54:46;;;;;;;;;;;20.00;99.90;;;;;;8366044;28;19932;-74
2021/09/26 19:58:50;;;;;;;;;;;19.90;99.90;;;;;;8367283;28;20279;-73
2021/09/26 20:02:54;;;;;;;;;;;19.90;99.90;;;;;;8367671;28;20593;-74
2021/09/26 20:06:56;;;;;;;;;;;19.90;99.90;;;;;;8371230;28;21077;-74
2021/09/26 20:10:58;;;;;;;;;;;19.90;99.90;;;;;;8366516;28;20720;-74
2021/09/26 20:15:00;;;;;;;;;;;19.80;99.90;;;;;;8364406;28;19921;-74
2021/09/26 20:19:01;;;;;;;;;;;19.80;99.90;;;;;;8368054;28;19929;-75
2021/09/26 20:23:03;;;;;;;;;;;19.80;99.90;;;;;;8370436;28;20003;-74
2021/09/26 20:27:05;;;;;;;;;;;19.80;99.90;;;;;;8369865;28;19925;-73
2021/09/26 20:31:07;;;;;;;;;;;19.80;99.90;;;;;;8371011;28;19924;-74
2021/09/26 20:35:10;;;;;;;;;;;19.80;99.90;;;;;;8368402;28;19973;-73
2021/09/26 20:39:16;;;;;;;;;;;19.70;99.90;;;;;;8370715;28;19920;-74
2021/09/26 20:43:18;;;;;;;;;;;19.70;99.90;;;;;;8383216;28;19928;-73
2021/09/26 20:47:20;;;;;;;;;;;19.60;99.90;;;;;;8352938;28;19928;-73
2021/09/26 20:51:22;;;;;;;;;;;19.60;99.90;;;;;;8368997;28;19924;-73
2021/09/26 20:55:25;;;;;;;;;;;19.50;99.90;;;;;;8366657;28;19925;-74
2021/09/26 20:59:28;;;;;;;;;;;19.40;99.90;;;;;;8366863;28;19924;-74
2021/09/26 21:03:33;;;;;;;;;;;19.40;99.90;;;;;;8380881;28;19931;-74
2021/09/26 21:07:35;;;;;;;;;;;19.40;99.90;;;;;;8387044;28;19920;-74
2021/09/26 21:11:36;;;;;;;;;;;19.40;99.90;;;;;;8387559;28;19946;-73
2021/09/26 21:15:39;;;;;;;;;;;19.40;99.90;;;;;;8389903;28;19974;-74
2021/09/26 21:19:42;;;;;;;;;;;19.40;99.90;;;;;;8370280;28;19935;-73
2021/09/26 21:23:44;;;;;;;6.60;4.65;;;19.40;99.90;;;;;;8392554;28;19927;-73
2021/09/26 21:27:47;;;;;;;10.45;6.80;;;19.30;99.90;;;;;;8385553;28;20040;-74
2021/09/26 21:31:48;;;;;;;10.48;7.00;;;19.30;99.90;;;;;;8387704;28;20103;-74
2021/09/26 21:35:51;;;;;;;10.80;7.07;;;19.20;99.90;;;;;;8385138;28;20138;-74
2021/09/26 21:39:53;;;;;;;8.70;6.63;;;19.10;99.90;;;;;;8371442;28;20460;-74
2021/09/26 21:43:55;;;;;;;10.40;7.05;;;19.00;99.90;;;;;;8381522;28;20045;-74
2021/09/26 21:47:57;;;;;;;11.60;8.48;;;19.00;99.90;;;;;;8391767;28;20067;-73
2021/09/26 21:51:59;;;;;;;7.35;5.00;;;18.90;99.90;;;;;;8385386;28;20053;-74
2021/09/26 21:56:01;;;;;;;8.23;5.63;;;18.90;99.90;;;;;;8382886;28;20052;-73
2021/09/26 22:00:18;;;;;;;10.43;6.72;;;18.90;99.90;;;;;;8388483;28;20190;-74
2021/09/26 22:04:20;;;;;;;8.65;5.78;;;18.90;99.90;;;;;;8378337;28;20040;-74
2021/09/26 22:08:24;;;;;;;7.95;5.75;;;18.80;99.90;;;;;;8385638;28;20056;-73
2021/09/26 22:12:26;;;;;;;8.90;5.70;;;18.80;99.90;;;;;;8379506;28;19920;-74
2021/09/26 22:16:30;;;;;;;9.88;6.03;;;18.80;99.90;;;;;;8365514;28;20080;-74
2021/09/26 22:20:34;;;;;;;7.13;4.78;;;18.80;99.90;;;;;;8362579;28;20063;-74
2021/09/26 22:24:36;;;;;;;10.30;5.95;;;18.80;99.90;;;;;;8386291;28;20049;-74
2021/09/26 22:28:40;;;;;;;8.38;5.85;;;18.80;99.90;;;;;;8380798;28;20052;-74
2021/09/26 22:32:43;;;;;;;9.88;6.25;;;18.80;99.90;;;;;;8381605;28;20045;-74
2021/09/26 22:36:45;;;;;;;9.95;7.10;;;18.90;99.90;;;;;;8389015;28;20040;-74
2021/09/26 22:40:47;;;;;;;11.25;6.93;;;18.90;99.90;;;;;;8365791;28;20048;-74
2021/09/26 22:44:49;;;;;;;11.65;6.90;;;18.90;99.90;;;;;;8367651;28;20048;-74
2021/09/26 22:48:51;;;;;;;10.75;7.10;;;18.90;99.90;;;;;;8383478;28;20052;-74
2021/09/26 22:52:53;;;;;;;11.45;7.60;;;18.90;99.90;;;;;;8384430;28;20878;-74